Aviation Digital Data Service (ADDS)

Output produced by METARs form (2204 UTC 23 March 2017)
found at http://aviationweather.gov/adds/metars/
 
KOAJ 231720Z 2318/2418 05008G18KT P6SM SKC 
     FM240000 VRB04KT P6SM SKC 
     FM241500 15007KT P6SM SKC AMD LTD TO CLD VIS AND WIND